首页
METAR-TAF:

METAR-TAF

机场 :

蘭斯堡國際機場

太陽城, 南非共和國

纬度: 25-20-01S, 经度: 027-10-24E, 海拔: 1040米

当前天气观测

该预报发布于39分钟前的09:00 UTC
风速2节,风向北转西北
温度 20°C
湿度 19%
气压 1022 hPa

METAR: FAPN 200900Z AUTO 33002KT //// // ////// 20/M04 Q1022

时间: 11:39 (09:39 UTC)


TAF: 丢失

超过4000个机场的气象观测和天气预报(METAR&TAF报告)。

可查询的气象台以黄色和红色小点在地图上表示。

将鼠标移到小点上方,可查看气象台名称。

然后点击查看天气观测和预报。

如需切换地图:点击带黑十字的绿色按钮放大地图;点击带横线的绿色按钮缩小地图;或者点击绿色箭头查看邻近地区的地图。


METAR-TAF: